Sunday, May 31, 2020 (13:00 UTC)
OPMET DATA
 
Terminal Aerodrome Forecast (TAF) and METAR
TAFs are issued by Aviation Meteorological Office, for Abu Dhabi (OMAA), Bateen (OMAD), Al Ain (OMAL), Dubai (OMDB), Al Maktoum (OMDW), Sharjah (OMSJ), Ras Al Khaimah (OMRK) and Fujairah (OMFJ) airports. These TAFs are issued every 6 hours and are valid for a 30 hour period. METARs (Aviation Routine Weather Reports) are updated hourly.
Show ICAO codes
Select OPMET type:        SEARCH   PRINT
Aviation Meteorology - National Center of Meteorology (NCM)
Telephone: +971 2 5757346 / 5053676
Email: metweb@adiamet.gov.ae
Website: www.avmet.ae
METAR OMAA 311300Z 32014KT CAVOK 37/23 Q1002 NOSIG=
METAR OMAD 311300Z 33009KT 8000 NSC 37/23 Q1002 NOSIG=
METAR OMAL 311300Z 29006KT 9999 FEW045 42/17 Q1005 NOSIG=
METAR OMDB 311300Z 31016KT 8000 NSC 36/23 Q1003 NOSIG=
METAR OMDW 311300Z 31014KT 7000 NSC 37/23 Q1004 NOSIG=
METAR OMFJ 311300Z 04008KT 040V070 5000 HZ 36/27 Q1002 A2960=
METAR OMSJ 311300Z 29014KT 8000 NSC 36/23 Q1003 NOSIG=
METAR OMRK 311300Z 32010KT 8000 NSC 37/19 Q1004 A2965=
METAR OTBD 311200Z 06005KT 030V120 CAVOK 39/23 Q1002 NOSIG=
METAR OTHH 311300Z AUTO 02010KT CAVOK 33/26 Q1002 NOSIG=
METAR OBBI 311300Z 32014KT CAVOK 34/22 Q1003 NOSIG=
METAR OEDF 311300Z 36016KT CAVOK 40/09 Q1003 NOSIG=
METAR OEDR 311200Z 30016KT CAVOK 40/07 Q1002 NOSIG=
METAR OEJN 311300Z 32018KT CAVOK 34/22 Q1006 NOSIG=
METAR OEMA 311300Z 26012KT CAVOK 43/01 Q1009 NOSIG=
METAR OEPA 311200Z 36005KT CAVOK 42/09 Q1009 NOSIG=
METAR OERF 311200Z 10008KT CAVOK 41/M01 Q1010=
METAR OERK 311300Z 04007KT CAVOK 42/04 Q1009 NOSIG=
METAR OERR 311200Z 10008KT CAVOK 35/M03 Q1011=
METAR OERY 311200Z 07006KT CAVOK 42/M03 Q1009=
METAR OESH 311200Z 04012KT 9999 SCT040 40/03 Q1007 NOSIG=
METAR OETB 311200Z 26004KT CAVOK 34/01 Q1011 NOSIG=
METAR OETF 311200Z 35005KT CAVOK 35/M02 Q1018 NOSIG=
METAR OETR 311200Z 12012KT CAVOK 34/05 Q1013=
METAR OEWD 311200Z 05006KT CAVOK 43/10 Q1007 NOSIG=
METAR OEWJ 311200Z 29018KT CAVOK 29/23 Q1008 NOSIG=
METAR OEYN 311200Z 27022KT 8000 NSC 39/18 Q1004 NOSIG=
METAR OKBK 311200Z 01017KT CAVOK 44/05 Q1005 NOSIG=
METAR OOMS 311250Z 05005KT 9999 FEW025 37/24 Q1002 NOSIG=
METAR OOSA 311250Z 10017KT 5000 RERA SCT009 BKN018 OVC080 26/24 Q1002 WS ALL RWY NOSIG=
METAR OYSN NIL=
METAR OYAA NIL=
 
Sunday, May 31, 2020 (13:00 UTC)